Time;durP1;ratioP1;P1;durP2;ratioP2;P2;SDS_P1;SDS_P2;PMS_P1;PMS_P2;Temp;Humidity;BMP_temperature;BMP_pressure;BME280_temperature;BME280_humidity;BME280_pressure;Samples;Min_cycle;Max_cycle;Signal;HPM_P1;HPM_P2
2021/10/09 00:00:19;;;;;;;28.92;24.05;;;15.00;75.30;;;;;;5028365;28;20056;-76
2021/10/09 00:02:44;;;;;;;28.90;23.98;;;14.90;75.30;;;;;;5014799;28;20135;-76
2021/10/09 00:05:10;;;;;;;32.10;25.00;;;14.90;75.40;;;;;;5044041;28;20026;-76
2021/10/09 00:07:36;;;;;;;27.35;23.42;;;14.90;75.40;;;;;;5052477;28;20140;-75
2021/10/09 00:10:05;;;;;;;29.27;24.60;;;14.90;75.50;;;;;;5031618;28;20029;-76
2021/10/09 00:12:31;;;;;;;27.23;24.17;;;14.90;75.60;;;;;;5039271;28;20083;-76
2021/10/09 00:14:57;;;;;;;27.15;23.40;;;14.80;75.70;;;;;;5020035;28;20017;-75
2021/10/09 00:17:24;;;;;;;29.90;24.52;;;14.80;75.80;;;;;;5041307;28;20033;-77
2021/10/09 00:19:51;;;;;;;27.08;24.13;;;14.80;75.80;;;;;;5021405;28;20040;-77
2021/10/09 00:22:17;;;;;;;29.27;23.80;;;14.80;75.90;;;;;;5044562;28;20986;-75
2021/10/09 00:24:43;;;;;;;27.58;23.27;;;14.70;75.90;;;;;;5041718;28;20025;-76
2021/10/09 00:27:09;;;;;;;28.20;22.90;;;14.70;76.10;;;;;;5035776;28;20115;-76
2021/10/09 00:29:35;;;;;;;28.98;23.42;;;14.70;76.20;;;;;;5013702;28;20028;-76
2021/10/09 00:32:00;;;;;;;30.90;24.70;;;14.70;76.20;;;;;;5031734;28;20033;-75
2021/10/09 00:34:26;;;;;;;28.23;23.95;;;14.70;76.20;;;;;;5039033;28;20084;-76
2021/10/09 00:36:52;;;;;;;26.52;22.70;;;14.70;76.20;;;;;;5048436;28;20033;-75
2021/10/09 00:39:17;;;;;;;27.85;24.67;;;14.60;76.20;;;;;;5017422;28;20141;-76
2021/10/09 00:41:44;;;;;;;27.90;23.15;;;14.60;76.30;;;;;;5031308;28;20032;-76
2021/10/09 00:44:12;;;;;;;28.42;23.60;;;14.70;76.40;;;;;;5031099;28;20120;-76
2021/10/09 00:46:39;;;;;;;28.13;25.08;;;14.60;76.40;;;;;;5013606;28;20091;-76
2021/10/09 00:49:06;;;;;;;26.77;23.88;;;14.60;76.50;;;;;;5034741;28;20564;-76
2021/10/09 00:51:32;;;;;;;29.85;25.17;;;14.60;76.50;;;;;;5021607;28;20682;-75
2021/10/09 00:54:01;;;;;;;29.27;24.00;;;14.50;76.50;;;;;;5039774;28;20036;-76
2021/10/09 00:56:33;;;;;;;28.88;25.77;;;14.50;76.60;;;;;;5048116;28;20380;-76
2021/10/09 00:58:59;;;;;;;;;;;14.50;76.70;;;;;;5020026;28;20064;-77
2021/10/09 01:01:25;;;;;;;27.35;24.45;;;14.40;76.50;;;;;;5040113;28;19936;-76
2021/10/09 01:03:52;;;;;;;31.17;25.00;;;14.40;76.60;;;;;;5021343;28;20505;-76
2021/10/09 01:06:18;;;;;;;29.67;25.55;;;14.40;76.70;;;;;;5037485;28;20112;-75
2021/10/09 01:08:44;;;;;;;31.65;26.33;;;14.30;76.70;;;;;;5044740;28;20116;-76
2021/10/09 01:11:10;;;;;;;32.03;26.75;;;14.30;76.80;;;;;;5047788;28;20048;-76
2021/10/09 01:13:35;;;;;;;31.67;26.30;;;14.30;76.90;;;;;;5009597;28;20155;-77
2021/10/09 01:16:01;;;;;;;32.10;27.17;;;14.30;76.90;;;;;;5043047;28;20115;-76
2021/10/09 01:18:27;;;;;;;31.73;26.95;;;14.30;76.90;;;;;;5026887;28;20028;-76
2021/10/09 01:21:01;;;;;;;32.28;27.77;;;14.30;77.10;;;;;;5014258;28;20396;-77
2021/10/09 01:23:28;;;;;;;32.38;26.67;;;14.20;77.00;;;;;;5045965;28;20029;-76
2021/10/09 01:25:55;;;;;;;30.55;26.85;;;14.20;77.00;;;;;;5030647;28;20033;-77
2021/10/09 01:28:21;;;;;;;29.98;25.90;;;14.20;77.10;;;;;;5029445;28;21159;-76
2021/10/09 01:30:47;;;;;;;31.27;27.67;;;14.20;77.10;;;;;;5037678;28;20022;-76
2021/10/09 01:33:14;;;;;;;33.58;27.20;;;14.20;77.30;;;;;;5040293;28;20711;-76
2021/10/09 01:35:49;;;;;;;32.38;26.63;;;14.10;77.90;;;;;;5022837;28;20019;-75
2021/10/09 01:38:16;;;;;;;30.77;26.65;;;14.10;77.40;;;;;;5047326;28;20052;-76
2021/10/09 01:40:42;;;;;;;33.22;27.58;;;14.10;77.40;;;;;;5012126;28;20044;-75
2021/10/09 01:43:10;;;;;;;32.95;27.92;;;14.00;77.50;;;;;;5011629;28;20033;-76
2021/10/09 01:45:36;;;;;;;34.80;28.45;;;14.00;77.60;;;;;;5042229;28;20392;-75
2021/10/09 01:48:01;;;;;;;33.28;28.15;;;14.00;77.60;;;;;;5014476;28;20030;-77
2021/10/09 01:50:27;;;;;;;35.28;28.55;;;14.00;77.70;;;;;;5030175;28;20025;-76
2021/10/09 01:52:53;;;;;;;34.58;28.63;;;14.00;77.70;;;;;;5016001;28;20043;-76
2021/10/09 01:55:18;;;;;;;32.72;28.02;;;13.90;77.70;;;;;;5048276;28;20037;-77
2021/10/09 01:57:44;;;;;;;34.95;27.80;;;13.90;77.70;;;;;;4999841;28;20068;-76
2021/10/09 02:00:11;;;;;;;34.58;27.90;;;13.90;77.80;;;;;;5045816;28;20034;-78
2021/10/09 02:02:36;;;;;;;32.25;27.20;;;13.90;77.70;;;;;;5024883;28;20549;-76
2021/10/09 02:05:03;;;;;;;34.10;28.45;;;13.90;77.70;;;;;;5033573;28;20029;-76
2021/10/09 02:07:30;;;;;;;33.05;27.92;;;13.80;77.70;;;;;;5024230;28;20041;-76
2021/10/09 02:09:56;;;;;;;34.10;28.27;;;13.80;77.60;;;;;;5024688;28;20013;-76
2021/10/09 02:12:24;;;;;;;34.30;28.27;;;13.80;77.70;;;;;;5003121;28;20021;-77
2021/10/09 02:14:55;;;;;;;34.10;28.63;;;13.80;77.70;;;;;;5032485;28;20017;-78
2021/10/09 02:28:02;;;;;;;38.08;29.27;;;13.70;77.80;;;;;;5039013;28;20066;-76
2021/10/09 02:30:28;;;;;;;32.28;28.45;;;13.70;78.10;;;;;;5027988;28;20480;-77
2021/10/09 02:32:54;;;;;;;35.70;29.45;;;13.60;77.80;;;;;;5030675;28;20056;-77
2021/10/09 02:35:20;;;;;;;31.27;27.23;;;13.60;77.80;;;;;;5032119;28;20699;-76
2021/10/09 02:37:45;;;;;;;31.70;27.35;;;13.60;77.90;;;;;;4998492;28;20084;-77
2021/10/09 02:40:12;;;;;;;33.83;27.95;;;13.60;78.00;;;;;;5033825;28;20491;-77
2021/10/09 02:42:38;;;;;;;35.35;29.80;;;13.60;78.00;;;;;;5032524;28;20033;-76
2021/10/09 02:45:04;;;;;;;34.80;28.38;;;13.60;78.00;;;;;;5044000;28;20037;-78
2021/10/09 02:47:30;;;;;;;36.92;29.23;;;13.50;78.00;;;;;;5033939;28;20479;-76
2021/10/09 02:49:55;;;;;;;37.22;29.98;;;13.50;78.00;;;;;;5049973;28;20029;-76
2021/10/09 02:52:21;;;;;;;37.50;30.02;;;13.50;78.10;;;;;;5022815;28;20036;-76
2021/10/09 02:54:47;;;;;;;35.42;28.58;;;13.40;78.00;;;;;;5007177;28;20103;-76
2021/10/09 02:57:12;;;;;;;34.78;29.52;;;13.40;78.10;;;;;;5031122;28;20441;-77
2021/10/09 02:59:38;;;;;;;39.60;31.00;;;13.40;78.00;;;;;;5033825;28;20029;-77
2021/10/09 03:02:04;;;;;;;35.42;28.80;;;13.40;78.20;;;;;;5050702;28;20033;-76
2021/10/09 03:04:31;;;;;;;34.35;28.52;;;13.40;78.20;;;;;;5034222;28;20033;-77
2021/10/09 03:06:57;;;;;;;35.55;29.73;;;13.30;78.20;;;;;;5022554;28;20033;-76
2021/10/09 03:09:22;;;;;;;34.33;29.92;;;13.30;78.20;;;;;;5022856;28;20373;-77
2021/10/09 03:11:48;;;;;;;34.78;29.30;;;13.30;78.10;;;;;;5016838;28;20033;-77
2021/10/09 03:14:14;;;;;;;37.95;30.02;;;13.30;78.00;;;;;;5026738;28;20056;-77
2021/10/09 03:16:40;;;;;;;34.75;27.27;;;13.30;78.00;;;;;;5041895;28;20069;-77
2021/10/09 03:19:05;;;;;;;34.92;29.20;;;13.30;77.90;;;;;;5045367;28;20472;-77
2021/10/09 03:21:31;;;;;;;39.00;29.55;;;13.20;77.80;;;;;;5014477;28;20038;-76
2021/10/09 03:23:57;;;;;;;33.92;26.77;;;13.20;77.90;;;;;;5050819;28;20021;-76
2021/10/09 03:26:22;;;;;;;37.85;29.08;;;13.20;77.90;;;;;;5032986;28;20052;-77
2021/10/09 03:28:48;;;;;;;35.42;30.02;;;13.20;77.90;;;;;;5036221;28;20070;-77
2021/10/09 03:31:14;;;;;;;35.75;28.77;;;13.10;77.80;;;;;;5026855;28;20040;-75
2021/10/09 03:33:40;;;;;;;35.00;29.48;;;13.10;77.80;;;;;;5032441;28;20040;-76
2021/10/09 03:36:05;;;;;;;35.17;28.75;;;13.10;77.70;;;;;;5032529;28;20047;-76
2021/10/09 03:38:31;;;;;;;37.67;29.67;;;13.10;77.70;;;;;;5032265;28;20045;-76
2021/10/09 03:41:06;;;;;;;34.42;27.70;;;13.10;77.70;;;;;;5014662;28;20033;-77
2021/10/09 03:43:32;;;;;;;35.25;28.80;;;13.10;77.60;;;;;;5024673;28;20045;-76
2021/10/09 03:53:42;;;;;;;37.80;28.85;;;12.90;77.70;;;;;;5045581;28;20035;-77
2021/10/09 03:56:08;;;;;;;35.70;29.13;;;12.90;77.80;;;;;;5032517;28;20028;-77
2021/10/09 03:58:33;;;;;;;35.67;29.85;;;12.90;77.90;;;;;;5022537;28;20033;-76
2021/10/09 04:00:59;;;;;;;35.67;28.10;;;12.80;77.90;;;;;;5021561;28;20052;-76
2021/10/09 04:03:25;;;;;;;38.33;29.20;;;12.90;78.00;;;;;;5032662;28;20017;-76
2021/10/09 04:05:50;;;;;;;35.28;28.80;;;12.80;77.90;;;;;;5023317;28;20025;-76
2021/10/09 04:08:16;;;;;;;35.85;29.02;;;12.80;77.80;;;;;;5031649;28;20017;-77
2021/10/09 04:10:42;;;;;;;35.35;28.58;;;12.80;77.70;;;;;;5016140;28;20029;-75
2021/10/09 04:13:07;;;;;;;37.30;29.60;;;12.80;77.70;;;;;;5011934;28;20037;-76
2021/10/09 04:15:33;;;;;;;35.17;29.65;;;12.70;77.60;;;;;;5012722;28;20567;-77
2021/10/09 04:17:59;;;;;;;37.17;29.90;;;12.70;77.60;;;;;;5029967;28;20506;-76
2021/10/09 04:20:25;;;;;;;36.60;29.17;;;12.70;77.60;;;;;;5046951;28;20029;-75
2021/10/09 04:22:51;;;;;;;38.92;29.42;;;12.70;77.50;;;;;;5019528;28;20043;-76
2021/10/09 04:25:16;;;;;;;37.17;28.67;;;12.60;77.50;;;;;;5023276;28;20091;-76
2021/10/09 04:27:55;;;;;;;36.10;29.65;;;12.60;77.70;;;;;;5015683;28;20037;-75
2021/10/09 04:30:21;;;;;;;38.00;30.17;;;12.60;77.70;;;;;;5042360;28;20654;-77
2021/10/09 04:32:46;;;;;;;39.22;30.00;;;12.60;77.60;;;;;;5031311;28;20048;-77
2021/10/09 04:35:12;;;;;;;37.75;30.23;;;12.50;77.70;;;;;;5047562;28;20029;-75
2021/10/09 04:37:38;;;;;;;38.53;30.33;;;12.50;77.90;;;;;;5027811;28;20059;-77
2021/10/09 04:40:05;;;;;;;38.22;30.02;;;12.50;78.00;;;;;;5038036;28;20025;-77
2021/10/09 04:42:31;;;;;;;38.08;30.42;;;12.50;78.00;;;;;;5048796;28;20032;-76
2021/10/09 04:44:56;;;;;;;41.55;30.88;;;12.50;78.20;;;;;;5026231;28;20041;-76
2021/10/09 04:47:22;;;;;;;35.83;29.27;;;12.50;78.20;;;;;;5047945;28;20040;-76
2021/10/09 04:49:48;;;;;;;43.15;31.58;;;12.40;78.10;;;;;;5014528;28;20120;-76
2021/10/09 04:52:14;;;;;;;42.22;29.95;;;12.40;78.30;;;;;;5027074;28;20028;-76
2021/10/09 04:54:40;;;;;;;38.00;30.63;;;12.40;78.40;;;;;;5012210;28;20033;-76
2021/10/09 04:57:05;;;;;;;36.28;29.90;;;12.40;78.30;;;;;;5028191;28;20052;-77
2021/10/09 04:59:31;;;;;;;39.75;31.67;;;12.30;78.30;;;;;;5039592;28;20100;-76
2021/10/09 05:01:57;;;;;;;38.13;30.38;;;12.30;78.50;;;;;;5045791;28;20029;-77
2021/10/09 05:04:22;;;;;;;39.08;31.67;;;12.30;78.70;;;;;;5020651;28;20031;-76
2021/10/09 05:06:48;;;;;;;41.45;31.35;;;12.30;78.90;;;;;;5027743;28;20104;-76
2021/10/09 05:09:14;;;;;;;39.72;31.20;;;12.30;79.00;;;;;;5046492;28;20029;-76
2021/10/09 05:11:40;;;;;;;41.42;31.27;;;12.30;79.10;;;;;;5030334;28;20106;-76
2021/10/09 05:14:05;;;;;;;42.38;31.00;;;12.30;79.30;;;;;;5021316;28;20384;-75
2021/10/09 05:16:31;;;;;;;39.08;31.80;;;12.20;79.30;;;;;;5022067;28;20029;-76
2021/10/09 05:18:57;;;;;;;40.08;31.42;;;12.20;79.40;;;;;;5043853;28;20464;-76
2021/10/09 05:21:23;;;;;;;44.13;31.75;;;12.20;79.50;;;;;;5040841;28;20029;-76
2021/10/09 05:23:48;;;;;;;40.33;31.15;;;12.20;79.50;;;;;;5033055;28;20416;-77
2021/10/09 05:26:14;;;;;;;40.45;31.92;;;12.20;79.40;;;;;;5014859;28;20034;-75
2021/10/09 05:28:58;;;;;;;41.10;31.30;;;12.20;79.40;;;;;;5024290;28;20492;-76
2021/10/09 05:31:31;;;;;;;40.50;30.55;;;12.20;79.40;;;;;;5046807;28;20392;-77
2021/10/09 05:33:57;;;;;;;41.28;31.42;;;12.10;79.30;;;;;;5049265;28;20404;-77
2021/10/09 05:36:23;;;;;;;40.30;31.20;;;12.10;79.40;;;;;;5049216;28;20078;-77
2021/10/09 05:38:50;;;;;;;39.53;30.95;;;12.10;79.50;;;;;;5034949;28;20048;-76
2021/10/09 05:41:16;;;;;;;38.90;30.77;;;12.10;79.50;;;;;;5027841;28;20025;-78
2021/10/09 05:43:43;;;;;;;39.03;30.95;;;12.10;79.50;;;;;;5041541;28;20542;-77
2021/10/09 05:46:09;;;;;;;40.15;31.35;;;12.10;79.50;;;;;;5021550;28;20029;-77
2021/10/09 05:48:37;;;;;;;41.53;30.50;;;12.10;79.50;;;;;;5034672;28;20498;-76
2021/10/09 05:51:08;;;;;;;39.10;31.13;;;12.10;79.50;;;;;;5025932;28;20368;-76
2021/10/09 05:53:52;;;;;;;37.92;30.67;;;12.00;79.50;;;;;;5012836;28;20031;-76
2021/10/09 05:56:31;;;;;;;43.53;31.60;;;12.00;79.50;;;;;;5043094;28;20475;-76
2021/10/09 06:50:15;;;;;;;39.15;30.42;;;11.90;80.40;;;;;;5042062;28;20095;-77
2021/10/09 07:00:54;;;;;;;38.30;29.25;;;11.90;80.60;;;;;;5041767;28;20570;-79
2021/10/09 07:03:21;;;;;;;43.97;31.42;;;11.90;80.60;;;;;;5043362;28;20040;-73
2021/10/09 07:05:48;;;;;;;35.38;29.13;;;11.90;80.60;;;;;;5033229;28;20415;-74
2021/10/09 07:08:14;;;;;;;38.22;30.08;;;11.90;80.70;;;;;;5044155;28;20033;-74
2021/10/09 07:10:43;;;;;;;36.47;28.40;;;11.90;80.80;;;;;;5020837;28;20040;-75
2021/10/09 07:13:10;;;;;;;36.28;28.27;;;11.90;81.00;;;;;;5025920;28;20688;-74
2021/10/09 07:15:36;;;;;;;40.63;29.25;;;11.90;81.00;;;;;;5025136;28;20024;-74
2021/10/09 07:18:03;;;;;;;40.30;29.67;;;11.90;80.90;;;;;;5016120;28;20029;-74
2021/10/09 07:20:29;;;;;;;39.60;29.42;;;11.90;80.90;;;;;;5017841;28;20060;-75
2021/10/09 07:22:55;;;;;;;39.65;29.85;;;12.00;81.00;;;;;;5025834;28;20029;-74
2021/10/09 07:25:22;;;;;;;37.45;28.35;;;11.90;80.90;;;;;;5033896;28;20040;-74
2021/10/09 07:27:47;;;;;;;33.85;28.42;;;11.90;81.00;;;;;;5027773;28;20042;-75
2021/10/09 07:30:14;;;;;;;40.35;29.35;;;12.00;81.10;;;;;;5022829;28;20033;-74
2021/10/09 07:32:41;;;;;;;37.67;28.80;;;12.00;81.00;;;;;;5033614;28;20074;-74
2021/10/09 07:35:07;;;;;;;34.85;28.35;;;12.00;81.10;;;;;;5026035;28;20383;-74
2021/10/09 07:37:34;;;;;;;35.78;28.48;;;12.00;81.00;;;;;;5045813;28;20081;-75
2021/10/09 07:40:00;;;;;;;37.90;27.98;;;12.00;81.00;;;;;;5038445;28;20064;-75
2021/10/09 07:42:26;;;;;;;34.70;27.52;;;12.00;81.00;;;;;;5006267;28;20111;-74
2021/10/09 07:44:52;;;;;;;33.30;26.95;;;12.00;81.10;;;;;;5034470;28;20033;-74
2021/10/09 07:47:18;;;;;;;36.75;28.27;;;12.10;81.10;;;;;;5046644;28;20103;-75
2021/10/09 07:49:44;;;;;;;33.65;27.02;;;12.10;81.00;;;;;;5021656;28;20134;-75
2021/10/09 07:52:10;;;;;;;35.42;27.35;;;12.10;80.90;;;;;;5033223;28;20388;-75
2021/10/09 07:54:36;;;;;;;32.33;26.80;;;12.10;80.70;;;;;;5023170;28;20037;-75
2021/10/09 07:57:03;;;;;;;34.40;26.70;;;12.10;80.60;;;;;;5038285;28;20032;-74
2021/10/09 07:59:29;;;;;;;35.60;27.38;;;12.10;80.70;;;;;;5002992;28;20069;-74
2021/10/09 08:01:55;;;;;;;33.05;26.42;;;12.10;80.60;;;;;;5029053;28;20033;-74
2021/10/09 08:04:21;;;;;;;35.45;27.23;;;12.10;80.50;;;;;;5048427;28;20021;-73
2021/10/09 08:06:46;;;;;;;33.25;26.70;;;12.10;80.50;;;;;;5021454;28;20126;-75
2021/10/09 08:09:12;;;;;;;33.67;26.95;;;12.20;80.50;;;;;;5039951;28;20476;-74
2021/10/09 08:11:40;;;;;;;36.03;27.27;;;12.20;80.60;;;;;;5043266;28;20415;-75
2021/10/09 08:14:06;;;;;;;32.75;27.80;;;12.20;80.50;;;;;;5048758;28;20017;-75
2021/10/09 08:16:32;;;;;;;33.38;25.75;;;12.30;80.50;;;;;;5045880;28;20341;-75
2021/10/09 08:19:00;;;;;;;34.15;27.25;;;12.30;80.50;;;;;;5044497;28;20028;-74
2021/10/09 08:21:27;;;;;;;37.25;27.48;;;12.40;80.50;;;;;;5035568;28;20025;-74
2021/10/09 08:40:17;;;;;;;36.33;28.48;;;12.50;80.00;;;;;;5044707;28;20067;-79
2021/10/09 08:42:44;;;;;;;34.15;26.90;;;12.50;80.20;;;;;;5042927;28;20039;-79
2021/10/09 08:45:10;;;;;;;36.40;28.55;;;12.60;80.40;;;;;;5043447;28;20061;-79
2021/10/09 08:47:38;;;;;;;33.08;26.70;;;12.70;80.30;;;;;;5049970;28;20029;-79
2021/10/09 08:50:08;;;;;;;33.17;27.88;;;12.80;80.40;;;;;;5032102;28;20033;-79
2021/10/09 08:52:35;;;;;;;35.72;27.38;;;12.90;80.20;;;;;;5032200;28;20520;-79
2021/10/09 08:55:21;;;;;;;37.55;29.13;;;13.00;80.20;;;;;;5026945;28;20475;-79
2021/10/09 08:57:47;;;;;;;32.38;26.88;;;13.20;80.00;;;;;;5019107;28;20025;-79
2021/10/09 09:00:14;;;;;;;34.97;28.30;;;13.30;79.70;;;;;;5026890;28;20087;-79
2021/10/09 09:03:04;;;;;;;32.83;27.83;;;13.40;79.50;;;;;;5041328;28;20045;-80
2021/10/09 09:08:47;;;;;;;34.67;26.58;;;13.70;79.00;;;;;;4993782;28;20037;-76
2021/10/09 09:31:23;;;;;;;36.15;27.60;;;13.30;76.50;;;;;;5035155;28;20394;-79
2021/10/09 09:41:48;;;;;;;34.00;27.08;;;13.70;77.50;;;;;;5048084;28;20033;-79
2021/10/09 09:44:16;;;;;;;29.30;24.98;;;13.90;76.70;;;;;;5050409;28;20506;-77
2021/10/09 09:46:59;;;;;;;28.48;24.15;;;14.10;76.60;;;;;;5052256;28;20029;-78
2021/10/09 09:49:27;;;;;;;32.90;25.60;;;14.20;76.30;;;;;;5050299;28;20035;-78
2021/10/09 09:51:55;;;;;;;32.90;26.40;;;14.40;75.70;;;;;;5048343;28;20029;-78
2021/10/09 09:54:26;;;;;;;32.53;24.15;;;14.50;75.00;;;;;;5047541;28;20029;-73
2021/10/09 09:57:00;;;;;;;28.63;23.77;;;14.60;74.90;;;;;;5051112;28;20624;-73
2021/10/09 09:59:32;;;;;;;29.85;23.67;;;14.80;75.00;;;;;;5030714;28;20108;-74
2021/10/09 10:02:03;;;;;;;29.02;23.60;;;14.90;75.20;;;;;;5046060;28;20507;-73
2021/10/09 10:04:34;;;;;;;26.70;21.60;;;15.00;74.60;;;;;;5051127;28;20037;-74
2021/10/09 10:07:01;;;;;;;28.27;22.83;;;15.10;74.00;;;;;;5027396;28;20036;-73
2021/10/09 10:09:31;;;;;;;31.63;22.77;;;15.20;73.60;;;;;;5045402;28;20055;-74
2021/10/09 10:12:02;;;;;;;32.15;24.35;;;15.30;73.60;;;;;;5044401;28;20100;-73
2021/10/09 10:14:30;;;;;;;29.55;24.08;;;15.40;73.20;;;;;;5047628;28;20035;-74
2021/10/09 10:17:00;;;;;;;32.38;25.40;;;15.50;73.10;;;;;;5034140;28;20116;-73
2021/10/09 10:19:50;;;;;;;30.38;25.02;;;15.60;72.40;;;;;;5046884;28;20029;-73
2021/10/09 10:22:36;;;;;;;30.17;23.25;;;15.70;72.90;;;;;;5030463;28;20029;-73
2021/10/09 10:25:25;;;;;;;28.85;24.23;;;15.70;71.80;;;;;;5040861;28;20056;-74
2021/10/09 10:28:00;;;;;;;27.48;22.42;;;15.80;71.80;;;;;;5031490;28;20049;-73
2021/10/09 10:30:31;;;;;;;27.25;22.55;;;16.00;71.40;;;;;;5041952;28;20017;-73
2021/10/09 10:32:58;;;;;;;29.55;24.23;;;16.10;71.00;;;;;;5033314;28;20526;-73
2021/10/09 10:35:44;;;;;;;28.92;23.75;;;16.20;70.30;;;;;;5050609;28;20017;-74
2021/10/09 10:38:12;;;;;;;32.58;24.00;;;16.20;69.30;;;;;;5042922;28;20049;-73
2021/10/09 10:40:50;;;;;;;28.92;22.65;;;16.20;69.10;;;;;;5018825;28;20037;-73
2021/10/09 10:43:41;;;;;;;26.42;20.95;;;16.30;69.30;;;;;;5025497;28;20033;-73
2021/10/09 10:55:04;;;;;;;25.85;21.73;;;16.70;68.60;;;;;;5036578;28;20072;-72
2021/10/09 10:57:30;;;;;;;25.90;20.85;;;16.70;68.10;;;;;;5026181;28;20079;-73
2021/10/09 11:00:12;;;;;;;26.77;22.08;;;16.80;68.10;;;;;;4999760;28;20037;-72
2021/10/09 11:02:45;;;;;;;27.95;20.52;;;16.90;68.00;;;;;;5044456;28;20420;-73
2021/10/09 11:05:13;;;;;;;26.27;21.83;;;17.00;67.80;;;;;;5018758;28;20101;-73
2021/10/09 11:07:41;;;;;;;25.10;21.83;;;17.20;67.70;;;;;;5046980;28;20041;-72
2021/10/09 11:10:18;;;;;;;24.58;20.88;;;17.30;66.90;;;;;;5030833;28;20017;-73
2021/10/09 11:12:44;;;;;;;26.77;20.58;;;17.40;66.20;;;;;;5046405;28;20045;-72
2021/10/09 11:15:25;;;;;;;27.00;22.92;;;17.60;65.80;;;;;;5048792;28;20389;-73
2021/10/09 11:18:02;;;;;;;31.35;21.63;;;17.70;65.50;;;;;;5047250;28;20068;-74
2021/10/09 11:20:28;;;;;;;27.00;20.60;;;17.80;65.40;;;;;;5029935;28;20120;-73
2021/10/09 11:22:57;;;;;;;29.33;22.40;;;17.90;65.00;;;;;;5026339;28;20139;-72
2021/10/09 11:25:32;;;;;;;31.05;22.10;;;18.00;64.20;;;;;;5020146;28;20041;-77
2021/10/09 11:28:04;;;;;;;26.67;20.35;;;18.10;64.40;;;;;;5044206;28;20028;-77
2021/10/09 11:30:31;;;;;;;25.17;20.60;;;18.20;64.30;;;;;;5048543;28;20430;-78
2021/10/09 11:32:58;;;;;;;24.58;20.58;;;18.30;64.00;;;;;;5046247;28;20018;-78
2021/10/09 11:35:32;;;;;;;26.23;21.65;;;18.40;63.70;;;;;;5050202;28;20456;-79
2021/10/09 11:37:59;;;;;;;29.05;21.33;;;18.50;63.20;;;;;;5030664;28;20075;-78
2021/10/09 11:40:30;;;;;;;27.45;21.00;;;18.60;62.70;;;;;;5048487;28;20055;-78
2021/10/09 11:43:15;;;;;;;26.20;20.33;;;18.60;62.70;;;;;;5048792;28;20029;-78
2021/10/09 11:54:01;;;;;;;25.33;19.80;;;18.80;62.40;;;;;;5033144;28;20068;-79
2021/10/09 11:56:27;;;;;;;24.90;20.98;;;18.90;61.90;;;;;;5027010;28;20029;-79
2021/10/09 11:58:57;;;;;;;24.45;20.38;;;19.00;62.10;;;;;;5048263;28;20025;-79
2021/10/09 12:01:39;;;;;;;23.65;19.08;;;19.10;61.00;;;;;;5045104;28;20052;-79
2021/10/09 12:04:23;;;;;;;25.00;20.92;;;19.10;60.50;;;;;;5047192;28;20475;-79
2021/10/09 12:09:45;;;;;;;27.15;21.27;;;19.10;60.60;;;;;;5033733;28;20040;-78
2021/10/09 12:12:22;;;;;;;23.50;20.27;;;19.10;60.80;;;;;;5028158;28;20033;-78
2021/10/09 12:14:52;;;;;;;25.70;20.35;;;19.20;60.40;;;;;;5042385;28;20391;-78
2021/10/09 12:17:21;;;;;;;23.98;19.52;;;19.20;59.80;;;;;;5031892;28;20305;-78
2021/10/09 12:19:59;;;;;;;27.58;20.38;;;19.20;60.00;;;;;;5033420;28;20379;-78
2021/10/09 12:22:25;;;;;;;24.92;19.75;;;19.30;60.40;;;;;;5045438;28;20388;-78
2021/10/09 12:24:53;;;;;;;27.58;20.35;;;19.30;60.00;;;;;;5042923;28;20369;-77
2021/10/09 12:27:26;;;;;;;27.05;20.00;;;19.30;59.60;;;;;;5041600;28;20408;-77
2021/10/09 12:30:09;;;;;;;25.83;19.38;;;19.20;59.90;;;;;;5047836;28;20025;-77
2021/10/09 12:32:46;;;;;;;28.58;19.77;;;19.20;60.40;;;;;;5029725;28;20025;-78
2021/10/09 12:35:26;;;;;;;25.90;19.85;;;19.20;59.80;;;;;;5042857;28;20049;-78
2021/10/09 12:38:09;;;;;;;24.27;18.70;;;19.20;60.30;;;;;;5039574;28;20063;-78
2021/10/09 12:40:43;;;;;;;23.33;19.02;;;19.20;60.10;;;;;;5047427;28;20099;-78
2021/10/09 12:43:12;;;;;;;27.70;20.38;;;19.30;60.20;;;;;;5019224;28;20510;-78
2021/10/09 12:45:39;;;;;;;20.55;18.17;;;19.30;60.80;;;;;;5045493;28;20053;-78
2021/10/09 12:48:05;;;;;;;27.80;20.45;;;19.30;61.00;;;;;;5049113;28;20040;-73
2021/10/09 12:50:35;;;;;;;25.13;19.73;;;19.30;60.80;;;;;;5044790;28;20102;-73
2021/10/09 12:53:01;;;;;;;29.58;19.88;;;19.30;60.80;;;;;;5043009;28;20103;-78
2021/10/09 12:55:29;;;;;;;25.25;20.48;;;19.30;60.80;;;;;;5026603;28;20025;-79
2021/10/09 12:57:58;;;;;;;22.83;19.20;;;19.30;60.20;;;;;;5026208;28;20033;-78
2021/10/09 13:00:26;;;;;;;23.67;19.00;;;19.30;61.00;;;;;;5050075;28;20029;-77
2021/10/09 13:02:52;;;;;;;26.23;20.23;;;19.30;61.00;;;;;;5031839;28;20024;-79
2021/10/09 13:05:22;;;;;;;30.27;21.48;;;19.30;60.90;;;;;;5047248;28;20083;-73
2021/10/09 13:07:48;;;;;;;25.35;20.77;;;19.30;59.80;;;;;;5029018;28;20029;-74
2021/10/09 13:10:15;;;;;;;23.92;20.02;;;19.40;60.30;;;;;;5033504;28;20021;-73
2021/10/09 13:12:40;;;;;;;25.77;19.25;;;19.70;60.00;;;;;;5049868;28;20471;-74
2021/10/09 13:15:07;;;;;;;25.98;20.33;;;20.00;58.60;;;;;;5026854;28;20028;-73
2021/10/09 13:17:32;;;;;;;23.30;19.60;;;20.20;57.90;;;;;;5027665;28;20632;-74
2021/10/09 13:19:58;;;;;;;20.90;18.48;;;20.50;57.30;;;;;;5019568;28;20029;-74
2021/10/09 13:22:24;;;;;;;22.30;18.30;;;21.00;55.70;;;;;;5032448;28;20040;-73
2021/10/09 13:24:49;;;;;;;27.23;19.45;;;21.40;55.60;;;;;;4979985;28;20033;-73
2021/10/09 13:27:15;;;;;;;22.58;18.75;;;22.40;53.30;;;;;;5030929;28;20064;-74
2021/10/09 13:29:41;;;;;;;25.15;19.55;;;23.90;50.00;;;;;;5034530;28;20041;-74
2021/10/09 13:32:06;;;;;;;22.63;18.17;;;25.30;46.60;;;;;;5041070;28;20051;-73
2021/10/09 13:34:32;;;;;;;21.48;18.30;;;26.50;45.00;;;;;;5030756;28;20029;-72
2021/10/09 13:36:58;;;;;;;19.13;16.92;;;27.60;42.80;;;;;;5040091;28;20483;-73
2021/10/09 13:39:23;;;;;;;24.58;19.05;;;28.40;41.30;;;;;;5033652;28;20133;-73
2021/10/09 13:41:49;;;;;;;21.83;19.27;;;29.00;39.70;;;;;;5051402;28;20041;-74
2021/10/09 13:44:15;;;;;;;17.95;16.05;;;29.50;38.60;;;;;;5022620;28;20497;-72
2021/10/09 13:46:41;;;;;;;19.17;17.02;;;30.00;38.70;;;;;;4994329;28;20033;-73
2021/10/09 13:49:07;;;;;;;20.77;16.88;;;30.30;37.90;;;;;;5034181;28;20095;-71
2021/10/09 13:51:33;;;;;;;20.08;16.40;;;30.70;37.00;;;;;;5024768;28;20083;-73
2021/10/09 13:53:59;;;;;;;19.58;16.15;;;30.90;36.40;;;;;;5050366;28;20036;-73
2021/10/09 13:56:25;;;;;;;21.30;16.95;;;31.10;36.80;;;;;;5034208;28;20029;-73
2021/10/09 13:58:51;;;;;;;20.70;17.30;;;31.30;36.30;;;;;;5031836;28;20037;-72
2021/10/09 14:01:16;;;;;;;18.80;15.55;;;31.60;35.80;;;;;;5029054;28;20079;-72
2021/10/09 14:03:44;;;;;;;17.00;15.27;;;31.80;35.50;;;;;;5049860;28;20579;-73
2021/10/09 14:06:10;;;;;;;19.95;17.40;;;32.00;35.30;;;;;;5043025;28;20030;-73
2021/10/09 14:08:35;;;;;;;20.98;17.65;;;32.20;35.00;;;;;;5037629;28;21164;-73
2021/10/09 14:11:02;;;;;;;20.20;17.45;;;32.30;34.60;;;;;;5033462;28;20364;-73
2021/10/09 14:13:28;;;;;;;17.60;15.75;;;32.40;34.40;;;;;;5027493;28;20890;-73
2021/10/09 14:15:55;;;;;;;18.08;16.33;;;32.50;34.10;;;;;;5032671;28;20514;-73
2021/10/09 14:18:21;;;;;;;18.08;16.13;;;32.60;34.10;;;;;;5047991;28;20040;-73
2021/10/09 14:20:52;;;;;;;20.90;16.05;;;32.70;34.30;;;;;;5047167;28;20028;-73
2021/10/09 14:23:18;;;;;;;20.90;15.25;;;32.80;33.50;;;;;;5046509;28;20074;-82
2021/10/09 14:25:45;;;;;;;19.58;16.20;;;32.90;32.80;;;;;;5046476;28;20057;-81
2021/10/09 14:28:12;;;;;;;19.30;16.40;;;32.90;33.30;;;;;;5039709;28;20029;-82
2021/10/09 14:37:22;;;;;;;;;;;33.10;33.50;;;;;;5058491;22;20399;-86
2021/10/09 14:39:48;;;;;;;21.23;16.55;;;33.10;33.70;;;;;;5013254;28;19905;-85
2021/10/09 14:42:14;;;;;;;17.90;15.40;;;33.10;33.20;;;;;;5000823;28;20037;-85
2021/10/09 14:44:40;;;;;;;18.52;15.43;;;33.00;33.40;;;;;;5006916;28;20025;-87
2021/10/09 14:50:17;;;;;;;17.73;15.88;;;33.00;33.10;;;;;;5002273;28;20038;-87
2021/10/09 15:17:07;;;;;;;19.98;16.02;;;31.60;34.70;;;;;;5029558;28;20123;-86
2021/10/09 15:19:33;;;;;;;18.00;15.82;;;31.30;35.30;;;;;;5000807;28;20059;-86
2021/10/09 15:21:59;;;;;;;20.15;16.33;;;31.00;35.80;;;;;;4998170;28;20044;-86
2021/10/09 15:24:24;;;;;;;21.45;17.60;;;30.50;36.30;;;;;;5015178;28;20423;-86
2021/10/09 15:26:50;;;;;;;20.67;15.85;;;29.80;37.10;;;;;;4998635;28;20460;-87
2021/10/09 15:29:16;;;;;;;18.48;16.48;;;29.00;38.10;;;;;;5004769;28;20498;-85
2021/10/09 15:31:41;;;;;;;19.13;17.10;;;28.20;39.30;;;;;;4997955;28;20444;-87